Time;durP1;ratioP1;P1;durP2;ratioP2;P2;SDS_P1;SDS_P2;PMS_P1;PMS_P2;Temp;Humidity;BMP_temperature;BMP_pressure;BME280_temperature;BME280_humidity;BME280_pressure;Samples;Min_cycle;Max_cycle;Signal;HPM_P1;HPM_P2
2023/09/05 00:01:54;;;;;;;;;;;16.00;99.90;;;;;;5078884;28;20482;-77
2023/09/05 00:04:19;;;;;;;10.80;7.70;;;16.00;99.90;;;;;;5077217;28;19927;-76
2023/09/05 00:06:48;;;;;;;10.73;8.45;;;16.00;99.90;;;;;;5112324;27;20032;-77
2023/09/05 00:09:18;;;;;;;14.52;8.27;;;16.00;99.90;;;;;;5085205;28;20032;-77
2023/09/05 00:11:46;;;;;;;9.77;8.73;;;15.90;99.90;;;;;;5079708;28;20048;-77
2023/09/05 00:14:12;;;;;;;11.57;7.78;;;15.90;99.90;;;;;;5089295;28;20044;-77
2023/09/05 00:16:38;;;;;;;11.65;8.55;;;15.90;99.90;;;;;;5083539;28;20048;-78
2023/09/05 00:19:05;;;;;;;14.02;8.40;;;15.80;99.90;;;;;;5093914;28;20123;-77
2023/09/05 00:21:30;;;;;;;12.00;8.20;;;15.80;99.90;;;;;;5090251;28;20131;-77
2023/09/05 00:24:33;;;;;;;10.75;7.65;;;15.80;99.90;;;;;;5085730;28;20139;-76
2023/09/05 00:27:00;;;;;;;11.93;7.88;;;15.70;99.90;;;;;;5081472;28;20077;-76
2023/09/05 00:29:27;;;;;;;9.85;7.93;;;15.70;99.90;;;;;;5087644;28;20043;-77
2023/09/05 00:31:53;;;;;;;9.23;8.20;;;15.80;99.90;;;;;;5083623;28;20404;-77
2023/09/05 00:34:19;;;;;;;12.15;8.00;;;15.70;99.90;;;;;;5085664;28;20398;-77
2023/09/05 00:36:48;;;;;;;11.32;8.43;;;15.60;99.90;;;;;;5083505;28;20116;-77
2023/09/05 00:39:16;;;;;;;11.00;8.27;;;15.60;99.90;;;;;;5085216;28;20041;-76
2023/09/05 00:41:41;;;;;;;11.25;9.02;;;15.60;99.90;;;;;;5090852;28;20044;-77
2023/09/05 00:44:09;;;;;;;12.20;7.90;;;15.60;99.90;;;;;;5077299;28;20047;-77
2023/09/05 00:46:34;;;;;;;11.77;8.17;;;15.60;99.90;;;;;;5076941;28;20048;-77
2023/09/05 00:49:03;;;;;;;10.25;8.80;;;15.50;99.90;;;;;;5081358;28;20040;-77
2023/09/05 00:51:33;;;;;;;11.82;8.05;;;15.60;99.90;;;;;;5080785;28;20028;-76
2023/09/05 00:54:01;;;;;;;11.55;8.20;;;15.60;99.90;;;;;;5084061;28;20636;-77
2023/09/05 00:56:26;;;;;;;10.85;8.50;;;15.60;99.90;;;;;;5086903;28;20047;-77
2023/09/05 00:58:52;;;;;;;12.35;8.40;;;15.50;99.90;;;;;;5088636;28;20043;-77
2023/09/05 01:01:18;;;;;;;13.50;9.32;;;15.50;99.90;;;;;;5085751;28;20045;-77
2023/09/05 01:03:43;;;;;;;9.80;7.43;;;15.50;99.90;;;;;;5087470;28;20127;-77
2023/09/05 01:06:25;;;;;;;9.90;8.10;;;15.50;99.90;;;;;;5092403;28;20043;-77
2023/09/05 01:09:01;;;;;;;11.07;8.23;;;15.50;99.90;;;;;;5083243;28;20044;-77
2023/09/05 01:11:27;;;;;;;14.77;8.82;;;15.50;99.90;;;;;;5088569;28;20448;-77
2023/09/05 01:13:53;;;;;;;13.45;9.15;;;15.50;99.90;;;;;;5090872;28;20568;-77
2023/09/05 01:16:18;;;;;;;11.52;8.48;;;15.50;99.90;;;;;;5091302;28;20143;-78
2023/09/05 01:18:45;;;;;;;17.02;9.68;;;15.50;99.90;;;;;;5083754;28;20059;-77
2023/09/05 01:21:21;;;;;;;13.48;10.23;;;15.60;99.90;;;;;;5086430;28;20049;-79
2023/09/05 01:23:58;;;;;;;14.93;10.13;;;15.60;99.90;;;;;;5093259;28;20044;-77
2023/09/05 01:26:25;;;;;;;12.90;8.95;;;15.60;99.90;;;;;;5083395;28;20044;-78
2023/09/05 01:28:52;;;;;;;10.98;9.02;;;15.60;99.90;;;;;;5089620;28;20040;-78
2023/09/05 01:31:18;;;;;;;12.30;9.15;;;15.70;99.90;;;;;;5085310;28;20459;-77
2023/09/05 01:33:44;;;;;;;11.18;9.07;;;15.70;99.90;;;;;;5087041;28;20085;-79
2023/09/05 01:36:09;;;;;;;12.27;9.50;;;15.70;99.90;;;;;;5086952;28;20044;-78
2023/09/05 01:38:35;;;;;;;10.32;8.50;;;15.70;99.90;;;;;;5089783;28;20081;-78
2023/09/05 01:41:01;;;;;;;12.85;9.60;;;15.70;99.90;;;;;;5079888;28;20363;-77
2023/09/05 01:43:26;;;;;;;12.02;9.77;;;15.70;99.90;;;;;;5088455;28;20124;-78
2023/09/05 01:45:52;;;;;;;12.73;9.20;;;15.70;99.90;;;;;;5085407;28;20427;-78
2023/09/05 01:48:18;;;;;;;13.68;10.10;;;15.60;99.90;;;;;;5080722;28;20119;-79
2023/09/05 01:50:43;;;;;;;11.68;9.02;;;15.60;99.90;;;;;;5090426;28;20036;-78
2023/09/05 01:53:09;;;;;;;11.13;9.48;;;15.60;99.90;;;;;;5085411;28;20029;-78
2023/09/05 01:55:35;;;;;;;12.93;10.43;;;15.60;99.90;;;;;;5080577;28;20039;-78
2023/09/05 01:58:01;;;;;;;12.82;9.65;;;15.60;99.90;;;;;;5113229;28;20040;-79
2023/09/05 02:00:26;;;;;;;12.35;10.05;;;15.60;99.90;;;;;;5091223;28;20408;-77
2023/09/05 02:02:52;;;;;;;12.52;9.40;;;15.50;99.90;;;;;;5081094;28;20051;-78
2023/09/05 02:05:17;;;;;;;14.30;9.23;;;15.50;99.90;;;;;;5091378;28;20486;-78
2023/09/05 02:07:43;;;;;;;11.55;9.85;;;15.50;99.90;;;;;;5090639;28;20395;-78
2023/09/05 02:10:10;;;;;;;13.32;9.68;;;15.50;99.90;;;;;;5076339;28;20044;-77
2023/09/05 02:12:36;;;;;;;13.73;9.18;;;15.50;99.90;;;;;;5089534;28;20067;-77
2023/09/05 02:15:02;;;;;;;12.25;8.80;;;15.50;99.90;;;;;;5088988;28;20040;-77
2023/09/05 02:17:31;;;;;;;16.40;9.35;;;15.50;99.90;;;;;;5079008;28;20127;-78
2023/09/05 02:19:59;;;;;;;11.43;9.25;;;15.50;99.90;;;;;;5079112;28;20418;-78
2023/09/05 02:22:25;;;;;;;13.45;9.50;;;15.50;99.90;;;;;;5074155;28;20048;-80
2023/09/05 02:24:51;;;;;;;11.95;9.63;;;15.50;99.90;;;;;;5076598;28;20505;-78
2023/09/05 02:27:16;;;;;;;13.50;10.43;;;15.50;99.90;;;;;;5090317;28;20040;-79
2023/09/05 02:29:42;;;;;;;11.30;9.38;;;15.40;99.90;;;;;;5084415;28;20047;-78
2023/09/05 02:32:08;;;;;;;11.07;9.35;;;15.50;99.90;;;;;;5081631;28;20054;-78
2023/09/05 02:34:33;;;;;;;11.93;10.10;;;15.40;99.90;;;;;;5090523;28;20059;-77
2023/09/05 02:37:00;;;;;;;12.88;9.60;;;15.50;99.90;;;;;;5080448;28;20143;-78
2023/09/05 02:39:27;;;;;;;14.80;10.38;;;15.40;99.90;;;;;;5090849;28;20046;-78
2023/09/05 02:41:53;;;;;;;12.27;10.02;;;15.40;99.90;;;;;;5088597;28;20115;-78
2023/09/05 02:44:18;;;;;;;11.90;10.05;;;15.30;99.90;;;;;;5091126;28;20169;-79
2023/09/05 02:46:45;;;;;;;13.05;9.88;;;15.30;99.90;;;;;;5083171;28;20060;-78
2023/09/05 02:49:10;;;;;;;11.57;9.20;;;15.40;99.90;;;;;;5077207;28;20052;-79
2023/09/05 02:51:36;;;;;;;15.93;11.07;;;15.30;99.90;;;;;;5081437;28;20378;-78
2023/09/05 02:54:02;;;;;;;14.35;10.23;;;15.30;99.90;;;;;;5085512;28;20119;-78
2023/09/05 02:56:27;;;;;;;18.42;10.52;;;15.30;99.90;;;;;;5080595;28;20036;-77
2023/09/05 02:58:53;;;;;;;11.20;10.00;;;15.30;99.90;;;;;;5082366;28;20115;-78
2023/09/05 03:01:19;;;;;;;14.73;9.95;;;15.30;99.90;;;;;;5085330;28;20093;-78
2023/09/05 03:03:44;;;;;;;15.40;11.00;;;15.30;99.90;;;;;;5081370;28;20054;-78
2023/09/05 03:06:12;;;;;;;12.65;11.20;;;15.30;99.90;;;;;;5090352;28;20084;-79
2023/09/05 03:08:38;;;;;;;12.10;9.98;;;15.20;99.90;;;;;;5084811;28;20043;-77
2023/09/05 03:11:04;;;;;;;13.90;10.20;;;15.20;99.90;;;;;;5088469;28;20060;-79
2023/09/05 03:13:30;;;;;;;14.10;10.02;;;15.20;99.90;;;;;;5084436;28;20475;-78
2023/09/05 03:15:56;;;;;;;14.60;10.73;;;15.20;99.90;;;;;;5089130;28;20072;-78
2023/09/05 03:18:21;;;;;;;11.90;10.27;;;15.20;99.90;;;;;;5084598;28;20076;-79
2023/09/05 03:20:47;;;;;;;11.48;9.27;;;15.10;99.90;;;;;;5084903;28;20029;-79
2023/09/05 03:23:14;;;;;;;12.65;10.32;;;15.10;99.90;;;;;;5081192;28;20047;-78
2023/09/05 03:25:39;;;;;;;13.15;10.27;;;15.10;99.90;;;;;;5092994;28;20050;-78
2023/09/05 03:28:05;;;;;;;11.93;10.55;;;15.10;99.90;;;;;;5084121;28;20037;-78
2023/09/05 03:30:31;;;;;;;13.48;10.65;;;15.10;99.90;;;;;;5080901;28;20048;-78
2023/09/05 03:32:57;;;;;;;12.27;10.45;;;15.10;99.90;;;;;;5076797;28;20048;-78
2023/09/05 03:35:22;;;;;;;14.65;10.60;;;15.10;99.90;;;;;;5089536;28;20066;-78
2023/09/05 03:37:48;;;;;;;14.35;10.63;;;15.10;99.90;;;;;;5083306;28;20481;-78
2023/09/05 03:40:14;;;;;;;12.88;10.77;;;15.10;99.90;;;;;;5089208;28;20112;-78
2023/09/05 03:42:40;;;;;;;14.13;10.98;;;15.00;99.90;;;;;;5078476;28;20382;-77
2023/09/05 03:45:07;;;;;;;11.98;10.38;;;15.00;99.90;;;;;;5090948;28;20045;-78
2023/09/05 03:47:32;;;;;;;14.13;10.88;;;15.00;99.90;;;;;;5087650;28;20412;-78
2023/09/05 03:49:58;;;;;;;16.52;11.20;;;15.10;99.90;;;;;;5076740;28;20049;-78
2023/09/05 03:52:24;;;;;;;12.77;11.27;;;15.00;99.90;;;;;;5082234;28;20076;-77
2023/09/05 03:54:49;;;;;;;19.55;11.75;;;15.00;99.90;;;;;;5081747;28;20078;-78
2023/09/05 03:57:16;;;;;;;14.02;10.98;;;15.00;99.90;;;;;;5091984;28;20036;-78
2023/09/05 03:59:41;;;;;;;12.75;10.73;;;15.00;99.90;;;;;;5088784;28;20512;-78
2023/09/05 04:02:07;;;;;;;15.85;11.25;;;14.90;99.90;;;;;;5081312;28;20040;-78
2023/09/05 04:04:33;;;;;;;18.52;11.43;;;14.90;99.90;;;;;;5090507;28;20040;-78
2023/09/05 04:06:59;;;;;;;14.82;11.55;;;14.90;99.90;;;;;;5077050;28;20041;-78
2023/09/05 04:09:24;;;;;;;13.25;11.43;;;14.90;99.90;;;;;;5092068;28;20425;-77
2023/09/05 04:11:50;;;;;;;14.27;10.82;;;14.90;99.90;;;;;;5094314;28;20044;-77
2023/09/05 04:14:16;;;;;;;13.23;11.30;;;14.90;99.90;;;;;;5088472;28;20036;-76
2023/09/05 04:16:42;;;;;;;16.83;10.27;;;14.90;99.90;;;;;;5080770;28;20040;-78
2023/09/05 04:19:08;;;;;;;18.70;10.85;;;14.90;99.90;;;;;;5119088;27;20405;-78
2023/09/05 04:21:35;;;;;;;13.68;11.43;;;14.90;99.90;;;;;;5082727;28;20063;-76
2023/09/05 04:24:00;;;;;;;15.65;11.10;;;14.80;99.90;;;;;;5087815;28;20045;-77
2023/09/05 04:26:28;;;;;;;14.98;10.32;;;14.80;99.90;;;;;;5057861;28;20048;-76
2023/09/05 04:28:54;;;;;;;;;;;14.80;99.90;;;;;;5084577;28;20043;-77
2023/09/05 04:31:20;;;;;;;16.90;11.75;;;14.70;99.90;;;;;;5085573;28;19927;-76
2023/09/05 04:33:46;;;;;;;14.40;10.98;;;14.70;99.90;;;;;;5083938;28;20039;-77
2023/09/05 04:36:11;;;;;;;16.00;11.90;;;14.70;99.90;;;;;;5085093;28;20043;-77
2023/09/05 04:38:43;;;;;;;14.45;11.57;;;14.60;99.90;;;;;;5082011;28;20048;-78
2023/09/05 04:41:08;;;;;;;13.70;11.30;;;14.60;99.90;;;;;;5084636;28;20045;-78
2023/09/05 04:43:34;;;;;;;15.35;11.60;;;14.60;99.90;;;;;;5090239;28;20085;-77
2023/09/05 04:46:02;;;;;;;17.17;12.18;;;14.60;99.90;;;;;;5091463;28;20512;-77
2023/09/05 04:48:28;;;;;;;16.40;11.77;;;14.60;99.90;;;;;;5107933;28;20063;-76
2023/09/05 04:50:54;;;;;;;17.30;11.80;;;14.50;99.90;;;;;;5095507;28;20037;-77
2023/09/05 04:53:20;;;;;;;27.73;13.63;;;14.60;99.90;;;;;;5080893;28;20122;-77
2023/09/05 04:55:48;;;;;;;17.67;12.82;;;14.50;99.90;;;;;;5090243;28;20437;-77
2023/09/05 04:58:14;;;;;;;18.02;11.93;;;14.50;99.90;;;;;;5099132;28;20044;-77
2023/09/05 05:00:41;;;;;;;21.05;12.52;;;14.50;99.90;;;;;;5094229;28;20112;-78
2023/09/05 05:03:08;;;;;;;25.95;12.00;;;14.50;99.90;;;;;;5088963;28;20138;-77
2023/09/05 05:05:33;;;;;;;17.52;11.60;;;14.50;99.90;;;;;;5095356;28;20470;-76
2023/09/05 05:07:59;;;;;;;17.73;12.00;;;14.50;99.90;;;;;;5088024;28;20135;-77
2023/09/05 05:10:24;;;;;;;19.83;12.25;;;14.60;99.90;;;;;;5091597;28;20402;-76
2023/09/05 05:12:50;;;;;;;17.23;11.23;;;14.50;99.90;;;;;;5093638;28;20040;-77
2023/09/05 05:15:16;;;;;;;23.55;13.68;;;14.60;99.90;;;;;;5090029;28;20032;-77
2023/09/05 05:17:41;;;;;;;21.02;13.65;;;14.60;99.90;;;;;;5095542;28;20089;-77
2023/09/05 05:20:08;;;;;;;17.80;12.95;;;14.60;99.90;;;;;;5084850;28;20028;-76
2023/09/05 05:22:33;;;;;;;19.40;12.75;;;14.60;99.90;;;;;;5088076;28;20106;-76
2023/09/05 05:24:59;;;;;;;19.90;11.73;;;14.60;99.90;;;;;;5089601;28;20036;-77
2023/09/05 05:27:25;;;;;;;21.45;12.68;;;14.50;99.90;;;;;;5095370;28;20044;-77
2023/09/05 05:29:52;;;;;;;28.30;15.82;;;14.60;99.90;;;;;;5089169;28;20036;-77
2023/09/05 05:32:18;;;;;;;23.13;15.38;;;14.70;99.90;;;;;;5068179;28;20056;-77
2023/09/05 05:34:48;;;;;;;23.17;12.48;;;14.70;99.90;;;;;;5077437;28;20037;-77
2023/09/05 05:37:17;;;;;;;24.05;12.70;;;14.60;99.90;;;;;;5080054;28;20101;-78
2023/09/05 05:39:43;;;;;;;20.05;12.32;;;14.70;99.90;;;;;;5087601;28;20070;-77
2023/09/05 05:42:09;;;;;;;17.45;13.68;;;14.70;99.90;;;;;;5085436;28;20047;-77
2023/09/05 05:44:35;;;;;;;15.25;12.30;;;14.70;99.90;;;;;;5076037;28;20076;-76
2023/09/05 05:47:01;;;;;;;15.80;12.82;;;14.80;99.90;;;;;;5079741;28;20142;-77
2023/09/05 05:49:28;;;;;;;16.92;12.13;;;14.80;99.90;;;;;;5094839;28;20043;-77
2023/09/05 05:51:58;;;;;;;18.60;13.40;;;14.80;99.90;;;;;;5080078;28;20062;-78
2023/09/05 05:54:24;;;;;;;17.50;13.00;;;14.80;99.90;;;;;;5075261;28;20045;-79
2023/09/05 05:56:55;;;;;;;15.90;12.27;;;14.90;99.90;;;;;;5087040;28;20050;-79
2023/09/05 05:59:21;;;;;;;17.67;12.88;;;14.90;99.90;;;;;;5081982;28;20156;-78
2023/09/05 06:01:46;;;;;;;14.55;12.23;;;15.00;99.90;;;;;;5088461;28;20044;-78
2023/09/05 06:04:15;;;;;;;16.55;13.07;;;15.00;99.90;;;;;;5082489;28;20036;-78
2023/09/05 06:06:42;;;;;;;15.00;12.15;;;15.10;99.90;;;;;;5084837;28;20040;-78
2023/09/05 06:09:09;;;;;;;16.40;12.43;;;15.10;99.90;;;;;;5101879;28;20051;-78
2023/09/05 06:11:34;;;;;;;18.90;12.73;;;15.10;99.90;;;;;;5086363;28;20040;-78
2023/09/05 06:14:00;;;;;;;18.02;12.88;;;15.20;99.90;;;;;;5087390;28;20044;-78
2023/09/05 06:16:26;;;;;;;19.35;12.90;;;15.30;99.90;;;;;;5094688;28;20036;-78
2023/09/05 06:18:52;;;;;;;19.98;12.35;;;15.30;99.90;;;;;;5078000;28;20045;-78
2023/09/05 06:21:17;;;;;;;19.52;13.00;;;15.40;99.90;;;;;;5084783;28;21000;-77
2023/09/05 06:23:43;;;;;;;18.35;12.63;;;15.50;99.90;;;;;;5084051;28;20166;-77
2023/09/05 06:26:09;;;;;;;18.13;12.20;;;15.60;99.90;;;;;;5093044;28;20043;-78
2023/09/05 06:28:35;;;;;;;15.55;12.00;;;15.70;99.90;;;;;;5087809;28;20493;-77
2023/09/05 06:31:00;;;;;;;16.13;11.88;;;15.80;99.90;;;;;;5087942;28;20375;-78
2023/09/05 06:33:26;;;;;;;16.17;12.50;;;16.00;99.90;;;;;;5088497;28;20038;-77
2023/09/05 06:35:52;;;;;;;15.55;11.88;;;16.30;99.90;;;;;;5076897;28;20043;-77
2023/09/05 06:38:21;;;;;;;15.45;11.27;;;16.70;99.90;;;;;;5090291;28;20036;-77
2023/09/05 06:40:46;;;;;;;15.82;10.70;;;17.00;99.90;;;;;;5087987;28;20040;-78
2023/09/05 06:43:12;;;;;;;15.65;10.45;;;17.20;99.90;;;;;;5078986;28;20037;-78
2023/09/05 06:45:38;;;;;;;15.93;10.23;;;17.40;99.90;;;;;;5089146;28;20101;-77
2023/09/05 06:48:06;;;;;;;13.68;9.98;;;17.60;99.90;;;;;;5080588;28;20120;-79
2023/09/05 06:50:32;;;;;;;17.08;10.68;;;18.00;99.90;;;;;;5087938;28;20094;-77
2023/09/05 06:52:58;;;;;;;18.10;10.98;;;18.20;99.90;;;;;;5093245;28;20048;-78
2023/09/05 06:55:24;;;;;;;13.07;9.50;;;18.30;99.90;;;;;;5088619;28;20032;-78
2023/09/05 06:57:49;;;;;;;13.88;10.90;;;18.30;99.90;;;;;;5089475;28;20111;-78
2023/09/05 07:00:15;;;;;;;11.80;9.80;;;18.30;99.90;;;;;;5085077;28;20094;-78
2023/09/05 07:02:41;;;;;;;15.30;11.20;;;18.50;99.90;;;;;;5090773;28;20430;-77
2023/09/05 07:05:07;;;;;;;13.35;10.43;;;18.80;99.90;;;;;;5088619;28;20039;-77
2023/09/05 07:07:32;;;;;;;19.05;9.27;;;19.20;99.90;;;;;;5092235;28;20475;-79
2023/09/05 07:09:59;;;;;;;13.00;9.18;;;19.30;99.90;;;;;;5093102;28;20085;-79
2023/09/05 07:12:24;;;;;;;14.40;8.85;;;19.30;99.90;;;;;;5081271;28;20032;-77
2023/09/05 07:14:52;;;;;;;13.82;9.70;;;19.20;99.90;;;;;;5091217;28;20142;-77
2023/09/05 07:17:18;;;;;;;17.55;9.80;;;19.20;99.90;;;;;;5083890;28;20041;-78
2023/09/05 07:19:43;;;;;;;21.85;9.68;;;19.30;99.90;;;;;;5076236;28;20105;-77
2023/09/05 07:22:09;;;;;;;12.82;9.40;;;19.40;99.90;;;;;;5093244;28;20048;-78
2023/09/05 07:24:35;;;;;;;16.45;9.70;;;19.30;99.90;;;;;;5092939;28;20048;-77
2023/09/05 07:27:00;;;;;;;13.88;9.43;;;19.40;99.90;;;;;;5093458;28;20394;-78
2023/09/05 07:29:26;;;;;;;14.68;9.55;;;19.40;99.90;;;;;;5109324;27;20573;-78
2023/09/05 07:31:52;;;;;;;11.75;9.40;;;19.40;99.90;;;;;;5115891;27;20061;-78
2023/09/05 07:34:18;;;;;;;12.88;8.70;;;19.40;99.90;;;;;;5080810;28;20052;-77
2023/09/05 07:36:45;;;;;;;20.75;9.95;;;19.40;99.90;;;;;;5078882;28;20059;-78
2023/09/05 07:39:10;;;;;;;12.52;9.98;;;19.60;99.90;;;;;;5084977;28;20094;-77
2023/09/05 07:41:38;;;;;;;14.10;9.63;;;19.60;99.90;;;;;;5069408;28;20111;-77
2023/09/05 07:44:04;;;;;;;11.93;8.90;;;19.70;99.90;;;;;;5080170;28;20051;-76
2023/09/05 07:46:29;;;;;;;12.52;9.10;;;19.80;99.90;;;;;;5086576;28;20516;-76
2023/09/05 07:48:55;;;;;;;13.65;9.15;;;19.90;99.90;;;;;;5083535;28;20074;-76
2023/09/05 07:51:22;;;;;;;12.45;9.27;;;20.10;99.90;;;;;;5090577;28;20067;-77
2023/09/05 07:53:59;;;;;;;12.30;9.13;;;20.20;99.90;;;;;;5078342;28;20048;-77
2023/09/05 07:56:24;;;;;;;15.02;9.32;;;20.30;99.90;;;;;;5089391;28;20058;-76
2023/09/05 07:58:50;;;;;;;15.30;9.75;;;20.30;99.90;;;;;;5081077;28;20036;-77
2023/09/05 08:01:17;;;;;;;12.35;8.55;;;20.40;99.90;;;;;;5085666;28;20040;-76
2023/09/05 08:03:42;;;;;;;12.52;9.35;;;20.50;99.90;;;;;;5108595;27;20052;-76
2023/09/05 08:06:08;;;;;;;17.90;8.82;;;20.60;99.90;;;;;;5074678;28;20052;-77
2023/09/05 08:08:34;;;;;;;12.88;8.77;;;20.70;99.90;;;;;;5091600;28;20047;-77
2023/09/05 08:11:00;;;;;;;11.80;8.88;;;20.80;99.90;;;;;;5090635;28;20068;-76
2023/09/05 08:13:25;;;;;;;16.55;8.35;;;21.00;99.90;;;;;;5092904;28;20039;-76
2023/09/05 08:15:53;;;;;;;14.70;8.45;;;21.10;99.90;;;;;;5078739;28;20526;-76
2023/09/05 08:18:19;;;;;;;;;;;21.30;99.90;;;;;;5074932;28;20063;-77
2023/09/05 08:20:44;;;;;;;11.02;7.85;;;21.40;99.90;;;;;;5085673;28;19919;-76
2023/09/05 08:23:11;;;;;;;13.63;7.90;;;21.50;99.90;;;;;;5089849;28;20056;-77
2023/09/05 08:25:36;;;;;;;10.27;7.28;;;21.70;99.90;;;;;;5082660;28;20040;-76
2023/09/05 08:28:02;;;;;;;14.68;7.55;;;21.90;99.90;;;;;;5092971;28;20040;-76
2023/09/05 08:30:28;;;;;;;10.63;7.25;;;22.00;99.90;;;;;;5086661;28;20036;-77
2023/09/05 08:33:01;;;;;;;11.13;7.95;;;22.10;99.90;;;;;;5084903;28;20402;-76
2023/09/05 08:35:26;;;;;;;11.63;7.78;;;22.20;99.90;;;;;;5077950;28;20475;-76
2023/09/05 08:38:04;;;;;;;12.93;7.63;;;22.30;99.90;;;;;;5077803;28;20048;-77
2023/09/05 08:40:33;;;;;;;13.30;7.03;;;22.40;99.90;;;;;;5078404;28;20442;-78
2023/09/05 08:42:58;;;;;;;11.27;7.13;;;22.40;99.90;;;;;;5089204;28;20051;-75
2023/09/05 08:45:26;;;;;;;11.65;6.65;;;22.50;99.90;;;;;;5088709;28;20163;-76
2023/09/05 08:47:53;;;;;;;9.43;6.80;;;22.70;99.90;;;;;;5091882;28;20043;-76
2023/09/05 08:50:18;;;;;;;11.88;6.60;;;22.80;99.90;;;;;;5081495;28;20054;-75
2023/09/05 08:52:46;;;;;;;7.55;5.70;;;23.00;99.90;;;;;;5076183;28;20044;-76
2023/09/05 08:55:13;;;;;;;10.73;6.70;;;23.10;99.90;;;;;;5075996;28;20051;-76
2023/09/05 08:57:39;;;;;;;11.05;6.00;;;23.20;99.90;;;;;;5089227;28;20041;-76
2023/09/05 09:00:08;;;;;;;10.55;6.53;;;23.30;99.90;;;;;;5079373;28;20089;-76
2023/09/05 09:02:38;;;;;;;7.85;5.53;;;23.40;99.90;;;;;;5081358;28;20045;-76
2023/09/05 09:05:04;;;;;;;9.77;6.15;;;23.50;99.90;;;;;;5083991;28;20142;-76
2023/09/05 09:07:30;;;;;;;10.25;5.80;;;23.60;99.90;;;;;;5080645;28;20052;-76
2023/09/05 09:09:57;;;;;;;9.75;5.72;;;23.60;99.90;;;;;;5074514;28;20036;-76
2023/09/05 09:12:31;;;;;;;9.13;5.60;;;23.70;99.90;;;;;;5078131;28;20079;-77
2023/09/05 09:15:09;;;;;;;8.80;5.03;;;23.90;99.90;;;;;;5092403;28;20093;-76
2023/09/05 09:17:35;;;;;;;6.82;5.30;;;23.90;99.90;;;;;;5094505;28;20067;-75
2023/09/05 09:20:03;;;;;;;7.45;4.75;;;24.00;99.90;;;;;;5077127;28;20051;-75
2023/09/05 09:22:29;;;;;;;9.25;5.10;;;24.10;99.90;;;;;;5113760;27;20390;-75
2023/09/05 09:24:55;;;;;;;9.13;5.03;;;24.10;99.90;;;;;;5090777;28;20055;-77
2023/09/05 09:27:23;;;;;;;8.77;4.68;;;24.20;99.90;;;;;;5092727;28;20036;-79
2023/09/05 09:29:55;;;;;;;7.35;4.63;;;24.40;99.90;;;;;;5091890;28;20051;-77
2023/09/05 09:32:22;;;;;;;7.53;4.38;;;24.50;99.90;;;;;;5083694;28;20049;-76
2023/09/05 09:34:49;;;;;;;9.30;4.60;;;24.50;99.90;;;;;;5085967;28;20482;-76
2023/09/05 09:37:25;;;;;;;;;;;24.60;99.90;;;;;;5069536;28;20047;-77
2023/09/05 09:39:57;;;;;;;6.80;4.30;;;24.70;99.90;;;;;;5076981;28;19920;-77
2023/09/05 09:42:25;;;;;;;8.48;4.95;;;24.90;99.90;;;;;;5095945;28;20078;-77
2023/09/05 09:44:52;;;;;;;13.82;5.32;;;25.00;99.90;;;;;;5100331;28;20043;-77
2023/09/05 09:47:18;;;;;;;7.50;4.50;;;25.10;99.90;;;;;;5097203;28;20051;-77
2023/09/05 09:49:49;;;;;;;6.15;4.22;;;25.20;99.90;;;;;;5101607;28;20044;-76
2023/09/05 09:52:16;;;;;;;6.32;3.70;;;25.40;99.90;;;;;;5098462;28;20074;-78
2023/09/05 09:54:44;;;;;;;7.43;3.60;;;25.60;99.90;;;;;;5085535;28;20119;-77
2023/09/05 09:57:30;;;;;;;9.13;3.92;;;25.70;99.90;;;;;;5086700;28;20044;-75
2023/09/05 10:00:00;;;;;;;10.43;4.38;;;25.80;99.90;;;;;;5099934;28;20047;-77
2023/09/05 10:02:28;;;;;;;10.68;4.38;;;25.90;99.90;;;;;;5103142;28;20040;-77
2023/09/05 10:04:56;;;;;;;7.35;4.07;;;26.00;99.90;;;;;;5089948;28;20040;-76
2023/09/05 10:07:22;;;;;;;11.35;4.18;;;26.10;99.90;;;;;;5093002;28;20043;-78
2023/09/05 10:09:51;;;;;;;8.20;4.10;;;26.20;99.90;;;;;;5100516;28;20032;-76
2023/09/05 10:12:20;;;;;;;7.53;4.43;;;26.40;99.90;;;;;;5083650;28;20048;-77
2023/09/05 10:14:47;;;;;;;7.55;4.50;;;26.60;99.90;;;;;;5103368;28;20044;-77
2023/09/05 10:17:15;;;;;;;7.70;5.00;;;26.70;99.90;;;;;;5102341;28;20076;-78
2023/09/05 10:19:42;;;;;;;;;;;26.70;99.90;;;;;;5101406;28;20439;-76
2023/09/05 10:22:09;;;;;;;5.95;3.92;;;26.80;99.90;;;;;;5102839;28;19920;-76
2023/09/05 10:24:37;;;;;;;;;;;27.00;99.90;;;;;;5104241;28;20067;-76
2023/09/05 10:27:03;;;;;;;7.55;3.70;;;27.00;99.90;;;;;;5112394;28;19920;-77
2023/09/05 10:29:45;;;;;;;7.57;3.20;;;27.20;99.90;;;;;;5099030;28;20047;-77
2023/09/05 10:32:19;;;;;;;7.10;4.20;;;27.40;99.90;;;;;;5093391;28;20041;-75
2023/09/05 10:35:02;;;;;;;4.25;3.40;;;27.50;99.90;;;;;;5091471;28;20039;-77
2023/09/05 10:37:38;;;;;;;6.93;3.17;;;27.50;99.90;;;;;;5122781;27;20062;-76
2023/09/05 10:40:08;;;;;;;10.90;3.58;;;27.70;99.30;;;;;;5121684;27;20040;-77
2023/09/05 10:42:36;;;;;;;5.78;3.60;;;27.80;99.20;;;;;;5087847;28;20498;-76
2023/09/05 10:45:28;;;;;;;;;;;27.90;98.90;;;;;;5099147;28;20046;-76
2023/09/05 10:47:59;;;;;;;7.38;2.83;;;28.00;98.80;;;;;;5087457;28;19985;-77
2023/09/05 10:50:25;;;;;;;5.55;3.08;;;28.10;97.70;;;;;;5092553;28;20055;-77
2023/09/05 10:53:11;;;;;;;5.47;2.65;;;28.30;98.40;;;;;;5089950;28;20452;-76
2023/09/05 10:55:46;;;;;;;7.45;2.88;;;28.30;95.90;;;;;;5087756;28;20036;-75
2023/09/05 10:58:37;;;;;;;6.18;3.17;;;28.40;96.80;;;;;;5096757;28;20079;-76
2023/09/05 11:01:29;;;;;;;5.10;3.28;;;28.50;93.70;;;;;;5094894;28;20506;-76
2023/09/05 11:04:10;;;;;;;6.93;2.80;;;28.50;93.30;;;;;;5080319;28;20499;-75
2023/09/05 11:06:36;;;;;;;5.25;2.78;;;28.60;94.40;;;;;;5091170;28;20040;-75
2023/09/05 11:09:07;;;;;;;7.07;2.67;;;28.80;94.80;;;;;;5117632;27;20043;-77
2023/09/05 11:11:36;;;;;;;4.85;2.60;;;29.00;94.20;;;;;;5090741;28;20073;-77
2023/09/05 11:14:03;;;;;;;5.63;2.63;;;29.10;94.10;;;;;;5085632;28;20068;-76
2023/09/05 11:16:42;;;;;;;5.68;2.30;;;29.30;93.20;;;;;;5086529;28;20059;-77
2023/09/05 11:19:08;;;;;;;6.25;2.67;;;29.30;92.80;;;;;;5086997;28;20051;-78
2023/09/05 11:21:33;;;;;;;6.32;3.13;;;29.70;93.20;;;;;;5081655;28;20064;-78
2023/09/05 11:23:59;;;;;;;5.72;2.53;;;30.00;93.30;;;;;;5086105;28;20099;-78
2023/09/05 11:26:25;;;;;;;4.47;2.58;;;30.40;93.60;;;;;;5080647;28;20051;-79
2023/09/05 11:28:51;;;;;;;6.60;2.20;;;30.60;92.40;;;;;;5084137;28;20615;-78
2023/09/05 11:31:21;;;;;;;7.57;2.40;;;30.80;91.80;;;;;;5082972;28;20048;-78
2023/09/05 11:33:48;;;;;;;5.50;2.10;;;30.80;90.50;;;;;;5077034;28;20044;-77
2023/09/05 11:36:13;;;;;;;4.32;2.55;;;30.80;90.40;;;;;;5086739;28;20538;-77
2023/09/05 11:38:48;;;;;;;4.17;2.37;;;31.00;88.30;;;;;;5086111;28;20115;-77
2023/09/05 11:41:15;;;;;;;5.75;2.28;;;30.90;89.40;;;;;;5080304;28;20040;-77
2023/09/05 11:43:48;;;;;;;6.72;2.20;;;30.90;89.60;;;;;;5093175;28;20078;-77
2023/09/05 11:46:19;;;;;;;4.43;2.20;;;30.90;87.60;;;;;;5076964;28;20044;-77
2023/09/05 11:48:46;;;;;;;7.65;2.25;;;30.70;85.20;;;;;;5084231;28;20075;-78
2023/09/05 11:51:14;;;;;;;4.70;2.00;;;30.70;87.00;;;;;;5105983;28;20413;-76
2023/09/05 11:53:42;;;;;;;2.95;1.90;;;30.70;87.20;;;;;;5080149;28;20082;-79
2023/09/05 11:56:09;;;;;;;4.90;2.10;;;30.80;86.60;;;;;;5089382;28;20032;-78
2023/09/05 11:58:35;;;;;;;6.65;2.10;;;30.80;87.50;;;;;;5088600;27;20134;-78
2023/09/05 12:01:01;;;;;;;4.97;2.30;;;31.00;87.20;;;;;;5087637;28;20044;-77
2023/09/05 12:03:30;;;;;;;3.50;1.70;;;30.90;84.60;;;;;;5089289;28;20055;-75
2023/09/05 12:05:56;;;;;;;4.10;2.30;;;30.90;85.40;;;;;;5075618;28;20040;-77
2023/09/05 12:08:23;;;;;;;5.63;2.08;;;31.10;83.60;;;;;;5091299;28;20047;-79
2023/09/05 12:10:52;;;;;;;5.97;2.00;;;31.30;84.20;;;;;;5085491;28;20097;-77
2023/09/05 12:13:18;;;;;;;7.30;2.33;;;31.40;83.20;;;;;;5098461;28;20478;-76
2023/09/05 12:15:45;;;;;;;3.28;2.30;;;31.70;83.90;;;;;;5083063;28;20123;-78
2023/09/05 12:18:16;;;;;;;;;;;31.70;82.10;;;;;;5085720;28;20036;-77
2023/09/05 12:20:42;;;;;;;3.25;1.90;;;31.80;81.40;;;;;;5085910;28;20266;-78
2023/09/05 12:23:08;;;;;;;6.33;2.53;;;31.80;82.30;;;;;;5092999;28;20082;-80
2023/09/05 12:25:34;;;;;;;3.77;2.23;;;32.00;82.80;;;;;;5091995;28;20410;-77
2023/09/05 12:28:21;;;;;;;3.47;1.98;;;31.90;80.50;;;;;;5092193;28;20036;-77
2023/09/05 12:30:53;;;;;;;3.70;2.00;;;31.90;81.20;;;;;;5087399;28;20066;-76
2023/09/05 12:33:20;;;;;;;3.85;2.10;;;31.70;81.60;;;;;;5095670;28;20397;-77
2023/09/05 12:35:46;;;;;;;5.47;2.25;;;31.60;82.40;;;;;;5093200;28;20040;-77
2023/09/05 12:38:13;;;;;;;4.28;2.10;;;31.60;83.20;;;;;;5090383;28;20044;-77
2023/09/05 12:40:40;;;;;;;4.80;2.15;;;31.60;83.50;;;;;;5097376;28;20371;-77